sensor_id;sensor_type;location;lat;lon;timestamp;P1;durP1;ratioP1;P2;durP2;ratioP2
14526;SDS011;7350;51.208;4.238;2022-08-21T00:02:01;8.63;;;3.40;;
14526;SDS011;7350;51.208;4.238;2022-08-21T00:04:28;6.45;;;2.95;;
14526;SDS011;7350;51.208;4.238;2022-08-21T00:06:57;6.70;;;2.85;;
14526;SDS011;7350;51.208;4.238;2022-08-21T00:09:24;8.20;;;3.17;;
14526;SDS011;7350;51.208;4.238;2022-08-21T00:11:51;6.40;;;3.28;;
14526;SDS011;7350;51.208;4.238;2022-08-21T00:14:18;7.80;;;3.53;;
14526;SDS011;7350;51.208;4.238;2022-08-21T00:16:45;6.90;;;3.35;;
14526;SDS011;7350;51.208;4.238;2022-08-21T00:19:13;6.90;;;3.30;;
14526;SDS011;7350;51.208;4.238;2022-08-21T00:21:40;6.70;;;3.08;;
14526;SDS011;7350;51.208;4.238;2022-08-21T00:24:08;7.53;;;3.75;;
14526;SDS011;7350;51.208;4.238;2022-08-21T00:26:35;8.45;;;3.42;;
14526;SDS011;7350;51.208;4.238;2022-08-21T00:29:02;7.30;;;3.40;;
14526;SDS011;7350;51.208;4.238;2022-08-21T00:31:29;9.02;;;3.78;;
14526;SDS011;7350;51.208;4.238;2022-08-21T00:33:56;6.78;;;3.72;;
14526;SDS011;7350;51.208;4.238;2022-08-21T00:36:23;8.02;;;3.53;;
14526;SDS011;7350;51.208;4.238;2022-08-21T00:38:50;8.30;;;3.83;;
14526;SDS011;7350;51.208;4.238;2022-08-21T00:41:18;7.05;;;3.17;;
14526;SDS011;7350;51.208;4.238;2022-08-21T00:43:45;10.73;;;3.53;;
14526;SDS011;7350;51.208;4.238;2022-08-21T00:46:12;7.88;;;3.20;;
14526;SDS011;7350;51.208;4.238;2022-08-21T00:48:39;8.80;;;3.85;;
14526;SDS011;7350;51.208;4.238;2022-08-21T00:51:07;6.38;;;2.72;;
14526;SDS011;7350;51.208;4.238;2022-08-21T00:53:37;6.85;;;2.70;;
14526;SDS011;7350;51.208;4.238;2022-08-21T00:56:07;6.75;;;2.80;;
14526;SDS011;7350;51.208;4.238;2022-08-21T00:58:37;6.30;;;2.70;;
14526;SDS011;7350;51.208;4.238;2022-08-21T01:01:06;6.93;;;3.03;;
14526;SDS011;7350;51.208;4.238;2022-08-21T01:03:34;6.60;;;2.78;;
14526;SDS011;7350;51.208;4.238;2022-08-21T01:06:02;5.70;;;3.03;;
14526;SDS011;7350;51.208;4.238;2022-08-21T01:08:30;5.55;;;2.80;;
14526;SDS011;7350;51.208;4.238;2022-08-21T01:10:58;6.22;;;2.60;;
14526;SDS011;7350;51.208;4.238;2022-08-21T01:13:27;5.63;;;2.78;;
14526;SDS011;7350;51.208;4.238;2022-08-21T01:15:58;7.35;;;3.08;;
14526;SDS011;7350;51.208;4.238;2022-08-21T01:18:28;7.50;;;3.42;;
14526;SDS011;7350;51.208;4.238;2022-08-21T01:21:04;7.57;;;3.38;;
14526;SDS011;7350;51.208;4.238;2022-08-21T01:23:34;5.22;;;2.75;;
14526;SDS011;7350;51.208;4.238;2022-08-21T01:26:02;6.80;;;2.65;;
14526;SDS011;7350;51.208;4.238;2022-08-21T01:28:31;7.50;;;2.78;;
14526;SDS011;7350;51.208;4.238;2022-08-21T01:31:07;5.53;;;2.72;;
14526;SDS011;7350;51.208;4.238;2022-08-21T01:33:36;6.45;;;2.67;;
14526;SDS011;7350;51.208;4.238;2022-08-21T01:36:05;5.75;;;2.83;;
14526;SDS011;7350;51.208;4.238;2022-08-21T01:38:32;7.70;;;2.85;;
14526;SDS011;7350;51.208;4.238;2022-08-21T01:40:59;5.70;;;2.67;;
14526;SDS011;7350;51.208;4.238;2022-08-21T01:43:26;5.03;;;3.00;;
14526;SDS011;7350;51.208;4.238;2022-08-21T01:45:53;5.47;;;2.85;;
14526;SDS011;7350;51.208;4.238;2022-08-21T01:48:20;4.88;;;3.15;;
14526;SDS011;7350;51.208;4.238;2022-08-21T01:50:47;6.60;;;3.20;;
14526;SDS011;7350;51.208;4.238;2022-08-21T01:53:15;7.70;;;3.63;;
14526;SDS011;7350;51.208;4.238;2022-08-21T01:55:42;9.95;;;3.20;;
14526;SDS011;7350;51.208;4.238;2022-08-21T01:58:10;6.20;;;3.35;;
14526;SDS011;7350;51.208;4.238;2022-08-21T02:00:37;6.03;;;3.70;;
14526;SDS011;7350;51.208;4.238;2022-08-21T02:03:04;6.85;;;3.28;;
14526;SDS011;7350;51.208;4.238;2022-08-21T02:05:31;7.63;;;3.08;;
14526;SDS011;7350;51.208;4.238;2022-08-21T02:07:58;10.20;;;3.08;;
14526;SDS011;7350;51.208;4.238;2022-08-21T02:10:28;6.80;;;2.72;;
14526;SDS011;7350;51.208;4.238;2022-08-21T02:12:58;6.38;;;2.80;;
14526;SDS011;7350;51.208;4.238;2022-08-21T02:15:26;8.70;;;3.10;;
14526;SDS011;7350;51.208;4.238;2022-08-21T02:17:55;10.10;;;3.10;;
14526;SDS011;7350;51.208;4.238;2022-08-21T02:20:25;7.07;;;2.72;;
14526;SDS011;7350;51.208;4.238;2022-08-21T02:22:53;8.02;;;2.92;;
14526;SDS011;7350;51.208;4.238;2022-08-21T02:25:21;7.40;;;2.72;;
14526;SDS011;7350;51.208;4.238;2022-08-21T02:27:51;8.43;;;2.97;;
14526;SDS011;7350;51.208;4.238;2022-08-21T02:30:20;6.90;;;2.60;;
14526;SDS011;7350;51.208;4.238;2022-08-21T02:32:50;7.90;;;3.15;;
14526;SDS011;7350;51.208;4.238;2022-08-21T02:35:17;8.07;;;2.90;;
14526;SDS011;7350;51.208;4.238;2022-08-21T02:37:45;6.93;;;2.85;;
14526;SDS011;7350;51.208;4.238;2022-08-21T02:40:15;7.07;;;2.65;;
14526;SDS011;7350;51.208;4.238;2022-08-21T02:42:43;6.78;;;2.75;;
14526;SDS011;7350;51.208;4.238;2022-08-21T02:45:11;6.63;;;2.70;;
14526;SDS011;7350;51.208;4.238;2022-08-21T02:47:39;8.10;;;2.80;;
14526;SDS011;7350;51.208;4.238;2022-08-21T02:50:06;6.95;;;2.83;;
14526;SDS011;7350;51.208;4.238;2022-08-21T02:52:33;8.57;;;2.80;;
14526;SDS011;7350;51.208;4.238;2022-08-21T02:55:02;6.97;;;2.78;;
14526;SDS011;7350;51.208;4.238;2022-08-21T02:57:29;8.75;;;2.58;;
14526;SDS011;7350;51.208;4.238;2022-08-21T02:59:57;8.27;;;2.83;;
14526;SDS011;7350;51.208;4.238;2022-08-21T03:02:26;10.05;;;2.90;;
14526;SDS011;7350;51.208;4.238;2022-08-21T03:04:53;9.15;;;3.58;;
14526;SDS011;7350;51.208;4.238;2022-08-21T03:07:20;7.80;;;3.20;;
14526;SDS011;7350;51.208;4.238;2022-08-21T03:09:47;6.43;;;2.53;;
14526;SDS011;7350;51.208;4.238;2022-08-21T03:12:14;7.57;;;3.13;;
14526;SDS011;7350;51.208;4.238;2022-08-21T03:14:41;6.55;;;2.58;;
14526;SDS011;7350;51.208;4.238;2022-08-21T03:17:08;7.18;;;2.65;;
14526;SDS011;7350;51.208;4.238;2022-08-21T03:19:36;7.28;;;2.92;;
14526;SDS011;7350;51.208;4.238;2022-08-21T03:22:04;6.43;;;2.53;;
14526;SDS011;7350;51.208;4.238;2022-08-21T03:24:31;4.57;;;2.65;;
14526;SDS011;7350;51.208;4.238;2022-08-21T03:26:58;7.95;;;3.15;;
14526;SDS011;7350;51.208;4.238;2022-08-21T03:29:25;7.30;;;2.50;;
14526;SDS011;7350;51.208;4.238;2022-08-21T03:31:53;7.38;;;2.50;;
14526;SDS011;7350;51.208;4.238;2022-08-21T03:34:20;7.28;;;2.42;;
14526;SDS011;7350;51.208;4.238;2022-08-21T03:36:48;9.75;;;2.58;;
14526;SDS011;7350;51.208;4.238;2022-08-21T03:39:15;6.55;;;2.50;;
14526;SDS011;7350;51.208;4.238;2022-08-21T03:41:43;8.93;;;3.13;;
14526;SDS011;7350;51.208;4.238;2022-08-21T03:44:10;8.70;;;3.38;;
14526;SDS011;7350;51.208;4.238;2022-08-21T03:46:37;7.13;;;2.72;;
14526;SDS011;7350;51.208;4.238;2022-08-21T03:49:05;8.27;;;2.40;;
14526;SDS011;7350;51.208;4.238;2022-08-21T03:51:32;8.73;;;2.83;;
14526;SDS011;7350;51.208;4.238;2022-08-21T03:54:02;7.70;;;2.90;;
14526;SDS011;7350;51.208;4.238;2022-08-21T03:56:29;7.93;;;3.00;;
14526;SDS011;7350;51.208;4.238;2022-08-21T03:58:56;6.20;;;2.45;;
14526;SDS011;7350;51.208;4.238;2022-08-21T04:01:23;9.68;;;2.88;;
14526;SDS011;7350;51.208;4.238;2022-08-21T04:03:50;8.90;;;3.13;;
14526;SDS011;7350;51.208;4.238;2022-08-21T04:06:17;6.07;;;2.75;;
14526;SDS011;7350;51.208;4.238;2022-08-21T04:08:44;7.18;;;3.13;;
14526;SDS011;7350;51.208;4.238;2022-08-21T04:11:12;8.27;;;3.00;;
14526;SDS011;7350;51.208;4.238;2022-08-21T04:13:39;9.02;;;3.17;;
14526;SDS011;7350;51.208;4.238;2022-08-21T04:16:07;7.78;;;2.80;;
14526;SDS011;7350;51.208;4.238;2022-08-21T04:18:34;7.18;;;2.63;;
14526;SDS011;7350;51.208;4.238;2022-08-21T04:21:01;7.00;;;2.78;;
14526;SDS011;7350;51.208;4.238;2022-08-21T04:23:29;6.15;;;2.92;;
14526;SDS011;7350;51.208;4.238;2022-08-21T04:25:56;7.85;;;2.95;;
14526;SDS011;7350;51.208;4.238;2022-08-21T04:28:25;8.48;;;2.80;;
14526;SDS011;7350;51.208;4.238;2022-08-21T04:30:53;10.75;;;3.03;;
14526;SDS011;7350;51.208;4.238;2022-08-21T04:33:21;9.95;;;3.78;;
14526;SDS011;7350;51.208;4.238;2022-08-21T04:35:49;8.48;;;3.13;;
14526;SDS011;7350;51.208;4.238;2022-08-21T04:38:16;8.10;;;2.65;;
14526;SDS011;7350;51.208;4.238;2022-08-21T04:40:44;5.65;;;3.03;;
14526;SDS011;7350;51.208;4.238;2022-08-21T04:43:11;9.55;;;2.78;;
14526;SDS011;7350;51.208;4.238;2022-08-21T04:45:41;10.27;;;2.92;;
14526;SDS011;7350;51.208;4.238;2022-08-21T04:48:10;8.18;;;3.22;;
14526;SDS011;7350;51.208;4.238;2022-08-21T04:50:39;9.77;;;2.88;;
14526;SDS011;7350;51.208;4.238;2022-08-21T04:53:10;8.27;;;3.05;;
14526;SDS011;7350;51.208;4.238;2022-08-21T04:55:40;9.80;;;3.28;;
14526;SDS011;7350;51.208;4.238;2022-08-21T04:58:08;7.93;;;2.67;;
14526;SDS011;7350;51.208;4.238;2022-08-21T05:00:39;7.97;;;2.70;;
14526;SDS011;7350;51.208;4.238;2022-08-21T05:03:07;9.50;;;2.65;;
14526;SDS011;7350;51.208;4.238;2022-08-21T05:05:35;9.70;;;3.38;;
14526;SDS011;7350;51.208;4.238;2022-08-21T05:08:03;9.90;;;2.90;;
14526;SDS011;7350;51.208;4.238;2022-08-21T05:10:30;9.35;;;3.13;;
14526;SDS011;7350;51.208;4.238;2022-08-21T05:12:58;9.30;;;3.10;;
14526;SDS011;7350;51.208;4.238;2022-08-21T05:15:26;6.15;;;2.70;;
14526;SDS011;7350;51.208;4.238;2022-08-21T05:17:54;6.32;;;2.42;;
14526;SDS011;7350;51.208;4.238;2022-08-21T05:20:21;11.35;;;2.60;;
14526;SDS011;7350;51.208;4.238;2022-08-21T05:22:48;8.98;;;3.28;;
14526;SDS011;7350;51.208;4.238;2022-08-21T05:25:15;6.40;;;2.92;;
14526;SDS011;7350;51.208;4.238;2022-08-21T05:27:42;7.35;;;2.60;;
14526;SDS011;7350;51.208;4.238;2022-08-21T05:30:10;9.02;;;3.17;;
14526;SDS011;7350;51.208;4.238;2022-08-21T05:32:37;13.40;;;2.97;;
14526;SDS011;7350;51.208;4.238;2022-08-21T05:35:06;9.07;;;2.88;;
14526;SDS011;7350;51.208;4.238;2022-08-21T05:37:34;10.02;;;2.80;;
14526;SDS011;7350;51.208;4.238;2022-08-21T05:40:02;8.32;;;2.85;;
14526;SDS011;7350;51.208;4.238;2022-08-21T05:42:30;6.43;;;3.10;;
14526;SDS011;7350;51.208;4.238;2022-08-21T05:44:57;8.95;;;3.00;;
14526;SDS011;7350;51.208;4.238;2022-08-21T05:47:24;8.50;;;2.72;;
14526;SDS011;7350;51.208;4.238;2022-08-21T05:49:51;7.95;;;2.97;;
14526;SDS011;7350;51.208;4.238;2022-08-21T05:52:20;6.75;;;2.70;;
14526;SDS011;7350;51.208;4.238;2022-08-21T05:54:47;10.32;;;2.92;;
14526;SDS011;7350;51.208;4.238;2022-08-21T05:57:15;8.65;;;3.40;;
14526;SDS011;7350;51.208;4.238;2022-08-21T05:59:42;8.50;;;2.70;;
14526;SDS011;7350;51.208;4.238;2022-08-21T06:02:09;8.68;;;2.88;;
14526;SDS011;7350;51.208;4.238;2022-08-21T06:04:36;9.23;;;2.75;;
14526;SDS011;7350;51.208;4.238;2022-08-21T06:07:03;8.90;;;2.95;;
14526;SDS011;7350;51.208;4.238;2022-08-21T06:09:32;9.25;;;3.20;;
14526;SDS011;7350;51.208;4.238;2022-08-21T06:12:02;9.27;;;2.70;;
14526;SDS011;7350;51.208;4.238;2022-08-21T06:14:30;7.13;;;3.10;;
14526;SDS011;7350;51.208;4.238;2022-08-21T06:17:01;9.70;;;3.00;;
14526;SDS011;7350;51.208;4.238;2022-08-21T06:19:29;6.95;;;2.67;;
14526;SDS011;7350;51.208;4.238;2022-08-21T06:21:56;10.13;;;2.80;;
14526;SDS011;7350;51.208;4.238;2022-08-21T06:24:23;9.00;;;3.15;;
14526;SDS011;7350;51.208;4.238;2022-08-21T06:26:51;10.35;;;4.15;;
14526;SDS011;7350;51.208;4.238;2022-08-21T06:29:19;9.20;;;3.05;;
14526;SDS011;7350;51.208;4.238;2022-08-21T06:31:46;8.48;;;2.90;;
14526;SDS011;7350;51.208;4.238;2022-08-21T06:34:14;6.00;;;2.72;;
14526;SDS011;7350;51.208;4.238;2022-08-21T06:36:42;8.52;;;2.88;;
14526;SDS011;7350;51.208;4.238;2022-08-21T06:39:09;12.60;;;3.42;;
14526;SDS011;7350;51.208;4.238;2022-08-21T06:41:38;8.82;;;3.08;;
14526;SDS011;7350;51.208;4.238;2022-08-21T06:44:06;9.10;;;3.05;;
14526;SDS011;7350;51.208;4.238;2022-08-21T06:46:33;8.75;;;2.85;;
14526;SDS011;7350;51.208;4.238;2022-08-21T06:49:00;7.72;;;3.45;;
14526;SDS011;7350;51.208;4.238;2022-08-21T06:51:27;9.23;;;3.45;;
14526;SDS011;7350;51.208;4.238;2022-08-21T06:53:54;7.80;;;3.30;;
14526;SDS011;7350;51.208;4.238;2022-08-21T06:56:21;11.15;;;3.15;;
14526;SDS011;7350;51.208;4.238;2022-08-21T06:58:48;14.55;;;3.58;;
14526;SDS011;7350;51.208;4.238;2022-08-21T07:01:17;9.23;;;3.47;;
14526;SDS011;7350;51.208;4.238;2022-08-21T07:03:44;7.63;;;3.63;;
14526;SDS011;7350;51.208;4.238;2022-08-21T07:06:11;7.43;;;3.00;;
14526;SDS011;7350;51.208;4.238;2022-08-21T07:08:38;11.57;;;3.08;;
14526;SDS011;7350;51.208;4.238;2022-08-21T07:11:07;6.47;;;3.05;;
14526;SDS011;7350;51.208;4.238;2022-08-21T07:13:37;9.75;;;3.10;;
14526;SDS011;7350;51.208;4.238;2022-08-21T07:16:04;12.02;;;4.07;;
14526;SDS011;7350;51.208;4.238;2022-08-21T07:18:33;10.43;;;3.55;;
14526;SDS011;7350;51.208;4.238;2022-08-21T07:21:00;7.57;;;3.53;;
14526;SDS011;7350;51.208;4.238;2022-08-21T07:23:28;9.48;;;2.97;;
14526;SDS011;7350;51.208;4.238;2022-08-21T07:25:57;7.97;;;2.72;;
14526;SDS011;7350;51.208;4.238;2022-08-21T07:28:25;11.50;;;3.20;;
14526;SDS011;7350;51.208;4.238;2022-08-21T07:30:53;10.48;;;3.08;;
14526;SDS011;7350;51.208;4.238;2022-08-21T07:33:22;12.07;;;3.30;;
14526;SDS011;7350;51.208;4.238;2022-08-21T07:35:52;9.55;;;3.10;;
14526;SDS011;7350;51.208;4.238;2022-08-21T07:38:20;14.65;;;3.63;;
14526;SDS011;7350;51.208;4.238;2022-08-21T07:40:47;9.13;;;3.05;;
14526;SDS011;7350;51.208;4.238;2022-08-21T07:43:15;8.82;;;3.22;;
14526;SDS011;7350;51.208;4.238;2022-08-21T07:45:43;6.70;;;2.95;;
14526;SDS011;7350;51.208;4.238;2022-08-21T07:48:11;8.70;;;3.65;;
14526;SDS011;7350;51.208;4.238;2022-08-21T07:50:38;10.15;;;2.80;;
14526;SDS011;7350;51.208;4.238;2022-08-21T07:53:08;7.07;;;2.40;;
14526;SDS011;7350;51.208;4.238;2022-08-21T07:55:35;12.70;;;2.95;;
14526;SDS011;7350;51.208;4.238;2022-08-21T07:58:02;8.70;;;2.58;;
14526;SDS011;7350;51.208;4.238;2022-08-21T08:00:29;8.88;;;3.42;;
14526;SDS011;7350;51.208;4.238;2022-08-21T08:02:56;10.80;;;3.17;;
14526;SDS011;7350;51.208;4.238;2022-08-21T08:05:24;7.60;;;2.40;;
14526;SDS011;7350;51.208;4.238;2022-08-21T08:07:53;7.78;;;2.45;;
14526;SDS011;7350;51.208;4.238;2022-08-21T08:10:22;7.90;;;2.63;;
14526;SDS011;7350;51.208;4.238;2022-08-21T08:12:50;8.02;;;2.53;;
14526;SDS011;7350;51.208;4.238;2022-08-21T08:15:20;7.93;;;2.55;;
14526;SDS011;7350;51.208;4.238;2022-08-21T08:17:49;10.32;;;3.00;;
14526;SDS011;7350;51.208;4.238;2022-08-21T08:20:17;10.23;;;2.70;;
14526;SDS011;7350;51.208;4.238;2022-08-21T08:22:45;8.18;;;3.28;;
14526;SDS011;7350;51.208;4.238;2022-08-21T08:25:13;9.23;;;2.83;;
14526;SDS011;7350;51.208;4.238;2022-08-21T08:27:42;11.07;;;3.10;;
14526;SDS011;7350;51.208;4.238;2022-08-21T08:30:10;8.68;;;2.80;;
14526;SDS011;7350;51.208;4.238;2022-08-21T08:32:38;8.43;;;2.42;;
14526;SDS011;7350;51.208;4.238;2022-08-21T08:35:06;5.97;;;2.63;;
14526;SDS011;7350;51.208;4.238;2022-08-21T08:37:34;8.48;;;2.72;;
14526;SDS011;7350;51.208;4.238;2022-08-21T08:40:05;8.15;;;2.78;;
14526;SDS011;7350;51.208;4.238;2022-08-21T08:42:34;6.90;;;2.33;;
14526;SDS011;7350;51.208;4.238;2022-08-21T08:45:04;9.32;;;2.38;;
14526;SDS011;7350;51.208;4.238;2022-08-21T08:47:34;9.05;;;3.08;;
14526;SDS011;7350;51.208;4.238;2022-08-21T08:50:06;8.07;;;2.88;;
14526;SDS011;7350;51.208;4.238;2022-08-21T08:52:39;6.43;;;2.33;;
14526;SDS011;7350;51.208;4.238;2022-08-21T08:55:11;9.80;;;2.50;;
14526;SDS011;7350;51.208;4.238;2022-08-21T08:57:42;7.03;;;2.38;;
14526;SDS011;7350;51.208;4.238;2022-08-21T09:00:14;8.20;;;3.05;;
14526;SDS011;7350;51.208;4.238;2022-08-21T09:02:43;8.93;;;2.83;;
14526;SDS011;7350;51.208;4.238;2022-08-21T09:05:15;8.13;;;2.70;;
14526;SDS011;7350;51.208;4.238;2022-08-21T09:10:43;9.43;;;2.13;;
14526;SDS011;7350;51.208;4.238;2022-08-21T09:13:24;9.43;;;2.65;;
14526;SDS011;7350;51.208;4.238;2022-08-21T09:16:02;10.65;;;2.50;;
14526;SDS011;7350;51.208;4.238;2022-08-21T09:18:38;6.68;;;2.10;;
14526;SDS011;7350;51.208;4.238;2022-08-21T09:21:14;8.98;;;2.60;;
14526;SDS011;7350;51.208;4.238;2022-08-21T09:23:48;8.90;;;2.17;;
14526;SDS011;7350;51.208;4.238;2022-08-21T09:26:22;8.07;;;2.28;;
14526;SDS011;7350;51.208;4.238;2022-08-21T09:28:52;10.20;;;2.95;;
14526;SDS011;7350;51.208;4.238;2022-08-21T09:31:24;6.43;;;2.38;;
14526;SDS011;7350;51.208;4.238;2022-08-21T09:33:57;5.18;;;2.50;;
14526;SDS011;7350;51.208;4.238;2022-08-21T09:36:25;8.30;;;3.10;;
14526;SDS011;7350;51.208;4.238;2022-08-21T09:38:57;10.25;;;2.70;;
14526;SDS011;7350;51.208;4.238;2022-08-21T09:41:28;9.00;;;2.50;;
14526;SDS011;7350;51.208;4.238;2022-08-21T09:43:57;5.70;;;2.70;;
14526;SDS011;7350;51.208;4.238;2022-08-21T09:46:26;7.78;;;2.22;;
14526;SDS011;7350;51.208;4.238;2022-08-21T09:48:56;7.22;;;3.00;;
14526;SDS011;7350;51.208;4.238;2022-08-21T09:51:25;8.65;;;2.88;;
14526;SDS011;7350;51.208;4.238;2022-08-21T09:53:54;8.05;;;2.47;;
14526;SDS011;7350;51.208;4.238;2022-08-21T09:56:28;8.65;;;2.63;;
14526;SDS011;7350;51.208;4.238;2022-08-21T09:59:18;8.25;;;3.35;;
14526;SDS011;7350;51.208;4.238;2022-08-21T10:01:52;9.55;;;3.50;;
14526;SDS011;7350;51.208;4.238;2022-08-21T10:04:20;9.18;;;3.72;;
14526;SDS011;7350;51.208;4.238;2022-08-21T10:06:49;8.15;;;3.90;;
14526;SDS011;7350;51.208;4.238;2022-08-21T10:09:17;11.27;;;4.93;;
14526;SDS011;7350;51.208;4.238;2022-08-21T10:11:48;8.02;;;4.15;;
14526;SDS011;7350;51.208;4.238;2022-08-21T10:14:31;9.63;;;3.80;;
14526;SDS011;7350;51.208;4.238;2022-08-21T10:17:10;12.23;;;3.10;;
14526;SDS011;7350;51.208;4.238;2022-08-21T10:19:43;8.15;;;2.97;;
14526;SDS011;7350;51.208;4.238;2022-08-21T10:22:19;13.18;;;3.90;;
14526;SDS011;7350;51.208;4.238;2022-08-21T10:24:57;9.90;;;4.40;;
14526;SDS011;7350;51.208;4.238;2022-08-21T10:27:30;11.48;;;5.65;;
14526;SDS011;7350;51.208;4.238;2022-08-21T10:30:06;11.48;;;6.05;;
14526;SDS011;7350;51.208;4.238;2022-08-21T10:32:43;9.30;;;4.07;;
14526;SDS011;7350;51.208;4.238;2022-08-21T10:35:31;11.05;;;4.60;;
14526;SDS011;7350;51.208;4.238;2022-08-21T10:38:10;8.80;;;3.25;;
14526;SDS011;7350;51.208;4.238;2022-08-21T10:41:01;7.88;;;4.03;;
14526;SDS011;7350;51.208;4.238;2022-08-21T10:43:34;14.15;;;3.53;;
14526;SDS011;7350;51.208;4.238;2022-08-21T10:46:10;7.45;;;2.97;;
14526;SDS011;7350;51.208;4.238;2022-08-21T10:48:45;14.25;;;3.70;;
14526;SDS011;7350;51.208;4.238;2022-08-21T10:51:16;11.50;;;3.28;;
14526;SDS011;7350;51.208;4.238;2022-08-21T10:53:50;8.80;;;3.22;;
14526;SDS011;7350;51.208;4.238;2022-08-21T10:56:25;8.52;;;2.47;;
14526;SDS011;7350;51.208;4.238;2022-08-21T10:59:02;6.25;;;2.30;;
14526;SDS011;7350;51.208;4.238;2022-08-21T11:01:39;9.02;;;2.88;;
14526;SDS011;7350;51.208;4.238;2022-08-21T11:04:13;9.70;;;2.58;;
14526;SDS011;7350;51.208;4.238;2022-08-21T11:06:46;11.65;;;3.05;;
14526;SDS011;7350;51.208;4.238;2022-08-21T11:09:18;8.82;;;2.67;;
14526;SDS011;7350;51.208;4.238;2022-08-21T11:11:49;7.70;;;2.90;;
14526;SDS011;7350;51.208;4.238;2022-08-21T11:14:24;10.63;;;2.50;;
14526;SDS011;7350;51.208;4.238;2022-08-21T11:16:57;9.82;;;2.50;;
14526;SDS011;7350;51.208;4.238;2022-08-21T11:19:34;7.93;;;2.92;;
14526;SDS011;7350;51.208;4.238;2022-08-21T11:22:06;9.68;;;2.63;;
14526;SDS011;7350;51.208;4.238;2022-08-21T11:24:42;7.55;;;2.63;;
14526;SDS011;7350;51.208;4.238;2022-08-21T11:27:19;7.28;;;2.33;;
14526;SDS011;7350;51.208;4.238;2022-08-21T11:29:51;8.38;;;2.33;;
14526;SDS011;7350;51.208;4.238;2022-08-21T11:32:24;9.95;;;2.63;;
14526;SDS011;7350;51.208;4.238;2022-08-21T11:35:03;8.90;;;2.63;;
14526;SDS011;7350;51.208;4.238;2022-08-21T11:37:42;7.85;;;2.30;;
14526;SDS011;7350;51.208;4.238;2022-08-21T11:40:19;7.43;;;2.47;;
14526;SDS011;7350;51.208;4.238;2022-08-21T11:42:58;5.65;;;2.05;;
14526;SDS011;7350;51.208;4.238;2022-08-21T11:45:37;9.38;;;2.50;;
14526;SDS011;7350;51.208;4.238;2022-08-21T11:48:12;9.30;;;2.83;;
14526;SDS011;7350;51.208;4.238;2022-08-21T11:50:52;11.98;;;2.83;;
14526;SDS011;7350;51.208;4.238;2022-08-21T11:53:21;6.18;;;2.28;;
14526;SDS011;7350;51.208;4.238;2022-08-21T11:55:55;9.15;;;2.47;;
14526;SDS011;7350;51.208;4.238;2022-08-21T11:58:27;6.72;;;2.35;;
14526;SDS011;7350;51.208;4.238;2022-08-21T12:00:59;7.07;;;2.22;;
14526;SDS011;7350;51.208;4.238;2022-08-21T12:03:32;8.38;;;2.17;;
14526;SDS011;7350;51.208;4.238;2022-08-21T12:06:04;9.70;;;2.60;;
14526;SDS011;7350;51.208;4.238;2022-08-21T12:08:33;8.50;;;2.45;;
14526;SDS011;7350;51.208;4.238;2022-08-21T12:11:04;9.98;;;2.85;;
14526;SDS011;7350;51.208;4.238;2022-08-21T12:13:34;8.27;;;2.45;;
14526;SDS011;7350;51.208;4.238;2022-08-21T12:16:10;10.75;;;2.95;;
14526;SDS011;7350;51.208;4.238;2022-08-21T12:18:39;6.10;;;2.17;;
14526;SDS011;7350;51.208;4.238;2022-08-21T12:21:24;7.82;;;2.05;;
14526;SDS011;7350;51.208;4.238;2022-08-21T12:24:15;7.78;;;2.47;;
14526;SDS011;7350;51.208;4.238;2022-08-21T12:26:48;5.97;;;2.38;;
14526;SDS011;7350;51.208;4.238;2022-08-21T12:29:21;6.47;;;2.03;;
14526;SDS011;7350;51.208;4.238;2022-08-21T12:31:57;7.50;;;2.13;;
14526;SDS011;7350;51.208;4.238;2022-08-21T12:34:31;11.15;;;2.85;;
14526;SDS011;7350;51.208;4.238;2022-08-21T12:37:04;6.57;;;2.08;;
14526;SDS011;7350;51.208;4.238;2022-08-21T12:39:33;7.28;;;2.22;;
14526;SDS011;7350;51.208;4.238;2022-08-21T12:42:06;7.65;;;2.50;;
14526;SDS011;7350;51.208;4.238;2022-08-21T12:44:42;10.27;;;2.47;;
14526;SDS011;7350;51.208;4.238;2022-08-21T12:47:13;7.72;;;2.40;;
14526;SDS011;7350;51.208;4.238;2022-08-21T12:49:47;5.85;;;2.33;;
14526;SDS011;7350;51.208;4.238;2022-08-21T12:52:22;9.70;;;2.60;;
14526;SDS011;7350;51.208;4.238;2022-08-21T12:54:53;6.55;;;2.40;;
14526;SDS011;7350;51.208;4.238;2022-08-21T12:57:21;8.38;;;2.63;;
14526;SDS011;7350;51.208;4.238;2022-08-21T12:59:53;10.43;;;2.70;;
14526;SDS011;7350;51.208;4.238;2022-08-21T13:02:22;7.38;;;2.35;;
14526;SDS011;7350;51.208;4.238;2022-08-21T13:04:51;5.72;;;2.15;;
14526;SDS011;7350;51.208;4.238;2022-08-21T13:07:24;8.98;;;2.20;;
14526;SDS011;7350;51.208;4.238;2022-08-21T13:09:54;7.93;;;2.90;;
14526;SDS011;7350;51.208;4.238;2022-08-21T13:12:24;6.97;;;2.25;;
14526;SDS011;7350;51.208;4.238;2022-08-21T13:14:54;5.85;;;2.53;;
14526;SDS011;7350;51.208;4.238;2022-08-21T13:17:24;9.43;;;2.50;;
14526;SDS011;7350;51.208;4.238;2022-08-21T13:19:53;8.00;;;2.78;;
14526;SDS011;7350;51.208;4.238;2022-08-21T13:22:23;7.95;;;2.53;;
14526;SDS011;7350;51.208;4.238;2022-08-21T13:24:51;8.98;;;2.88;;
14526;SDS011;7350;51.208;4.238;2022-08-21T13:27:19;7.47;;;2.40;;
14526;SDS011;7350;51.208;4.238;2022-08-21T13:29:59;5.53;;;2.00;;
14526;SDS011;7350;51.208;4.238;2022-08-21T13:32:29;5.45;;;1.92;;
14526;SDS011;7350;51.208;4.238;2022-08-21T13:34:59;9.18;;;2.67;;
14526;SDS011;7350;51.208;4.238;2022-08-21T13:37:36;6.72;;;2.45;;
14526;SDS011;7350;51.208;4.238;2022-08-21T13:40:06;9.00;;;2.85;;
14526;SDS011;7350;51.208;4.238;2022-08-21T13:42:39;7.30;;;2.00;;
14526;SDS011;7350;51.208;4.238;2022-08-21T13:45:11;3.97;;;1.63;;
14526;SDS011;7350;51.208;4.238;2022-08-21T13:47:43;8.25;;;2.78;;
14526;SDS011;7350;51.208;4.238;2022-08-21T13:50:13;7.68;;;2.22;;
14526;SDS011;7350;51.208;4.238;2022-08-21T13:52:53;8.02;;;2.28;;
14526;SDS011;7350;51.208;4.238;2022-08-21T13:55:24;9.25;;;2.53;;
14526;SDS011;7350;51.208;4.238;2022-08-21T13:58:01;6.25;;;1.83;;
14526;SDS011;7350;51.208;4.238;2022-08-21T14:00:30;9.88;;;3.00;;
14526;SDS011;7350;51.208;4.238;2022-08-21T14:03:02;10.20;;;2.88;;
14526;SDS011;7350;51.208;4.238;2022-08-21T14:05:34;7.82;;;2.10;;
14526;SDS011;7350;51.208;4.238;2022-08-21T14:08:06;8.05;;;2.08;;
14526;SDS011;7350;51.208;4.238;2022-08-21T14:10:40;6.05;;;2.30;;
14526;SDS011;7350;51.208;4.238;2022-08-21T14:13:17;12.80;;;2.63;;
14526;SDS011;7350;51.208;4.238;2022-08-21T14:16:00;8.38;;;2.25;;
14526;SDS011;7350;51.208;4.238;2022-08-21T14:18:28;7.88;;;3.38;;
14526;SDS011;7350;51.208;4.238;2022-08-21T14:21:05;6.20;;;2.08;;
14526;SDS011;7350;51.208;4.238;2022-08-21T14:23:36;7.82;;;2.22;;
14526;SDS011;7350;51.208;4.238;2022-08-21T14:26:04;9.60;;;2.25;;
14526;SDS011;7350;51.208;4.238;2022-08-21T14:28:33;9.15;;;2.70;;
14526;SDS011;7350;51.208;4.238;2022-08-21T14:31:11;9.82;;;2.45;;
14526;SDS011;7350;51.208;4.238;2022-08-21T14:33:39;8.02;;;2.63;;
14526;SDS011;7350;51.208;4.238;2022-08-21T14:36:06;6.53;;;2.67;;
14526;SDS011;7350;51.208;4.238;2022-08-21T14:38:34;9.13;;;2.35;;
14526;SDS011;7350;51.208;4.238;2022-08-21T14:41:07;7.30;;;2.60;;
14526;SDS011;7350;51.208;4.238;2022-08-21T14:43:41;8.10;;;2.30;;
14526;SDS011;7350;51.208;4.238;2022-08-21T14:46:09;8.07;;;2.17;;
14526;SDS011;7350;51.208;4.238;2022-08-21T14:48:38;9.05;;;2.50;;
14526;SDS011;7350;51.208;4.238;2022-08-21T14:51:05;9.05;;;3.00;;
14526;SDS011;7350;51.208;4.238;2022-08-21T14:53:32;9.23;;;2.75;;
14526;SDS011;7350;51.208;4.238;2022-08-21T14:56:00;9.52;;;2.85;;
14526;SDS011;7350;51.208;4.238;2022-08-21T14:58:33;7.55;;;2.58;;
14526;SDS011;7350;51.208;4.238;2022-08-21T15:01:05;9.05;;;3.50;;
14526;SDS011;7350;51.208;4.238;2022-08-21T15:03:33;9.57;;;2.65;;
14526;SDS011;7350;51.208;4.238;2022-08-21T15:06:01;7.93;;;3.30;;
14526;SDS011;7350;51.208;4.238;2022-08-21T15:08:28;9.18;;;3.58;;
14526;SDS011;7350;51.208;4.238;2022-08-21T15:10:55;9.82;;;2.90;;
14526;SDS011;7350;51.208;4.238;2022-08-21T15:13:24;8.00;;;2.85;;
14526;SDS011;7350;51.208;4.238;2022-08-21T15:15:51;9.85;;;2.90;;
14526;SDS011;7350;51.208;4.238;2022-08-21T15:18:18;8.20;;;2.40;;
14526;SDS011;7350;51.208;4.238;2022-08-21T15:20:45;9.15;;;2.60;;